sensor_id;sensor_type;location;lat;lon;timestamp;pressure;altitude;pressure_sealevel;temperature;humidity
46714;BME280;32445;51.376;10.874;2024-03-22T00:01:58;100012.81;;;7.01;49.26
46714;BME280;32445;51.376;10.874;2024-03-22T00:06:59;100005.91;;;6.99;49.29
46714;BME280;32445;51.376;10.874;2024-03-22T00:11:59;100003.34;;;6.97;49.28
46714;BME280;32445;51.376;10.874;2024-03-22T00:16:59;99993.88;;;6.96;49.40
46714;BME280;32445;51.376;10.874;2024-03-22T00:22:00;99984.41;;;7.00;49.34
46714;BME280;32445;51.376;10.874;2024-03-22T00:27:00;99982.69;;;6.99;49.31
46714;BME280;32445;51.376;10.874;2024-03-22T00:32:00;99970.66;;;6.96;49.25
46714;BME280;32445;51.376;10.874;2024-03-22T00:37:01;99965.50;;;6.91;49.35
46714;BME280;32445;51.376;10.874;2024-03-22T00:42:01;99962.94;;;6.90;49.50
46714;BME280;32445;51.376;10.874;2024-03-22T00:47:02;99944.03;;;6.88;49.58
46714;BME280;32445;51.376;10.874;2024-03-22T00:52:03;99948.31;;;6.92;49.29
46714;BME280;32445;51.376;10.874;2024-03-22T00:57:04;99943.16;;;6.93;49.40
46714;BME280;32445;51.376;10.874;2024-03-22T01:02:04;99940.59;;;6.92;49.46
46714;BME280;32445;51.376;10.874;2024-03-22T01:07:04;99933.69;;;6.91;49.41
46714;BME280;32445;51.376;10.874;2024-03-22T01:12:05;99931.16;;;6.86;49.53
46714;BME280;32445;51.376;10.874;2024-03-22T01:17:05;99924.25;;;6.85;49.98
46714;BME280;32445;51.376;10.874;2024-03-22T01:22:08;99899.28;;;6.90;50.12
46714;BME280;32445;51.376;10.874;2024-03-22T01:27:08;99897.53;;;6.97;49.96
46714;BME280;32445;51.376;10.874;2024-03-22T01:32:09;99881.16;;;7.03;49.84
46714;BME280;32445;51.376;10.874;2024-03-22T01:37:09;99881.09;;;7.09;49.83
46714;BME280;32445;51.376;10.874;2024-03-22T01:42:10;99885.41;;;7.08;50.16
46714;BME280;32445;51.376;10.874;2024-03-22T01:47:10;99885.38;;;7.15;50.03
46714;BME280;32445;51.376;10.874;2024-03-22T01:52:11;99895.69;;;7.16;49.94
46714;BME280;32445;51.376;10.874;2024-03-22T01:57:12;99900.84;;;7.18;50.12
46714;BME280;32445;51.376;10.874;2024-03-22T02:02:12;99893.09;;;7.16;50.74
46714;BME280;32445;51.376;10.874;2024-03-22T02:07:12;99894.81;;;7.19;50.72
46714;BME280;32445;51.376;10.874;2024-03-22T02:12:13;99882.78;;;7.21;50.84
46714;BME280;32445;51.376;10.874;2024-03-22T02:17:13;99881.84;;;7.31;50.62
46714;BME280;32445;51.376;10.874;2024-03-22T02:22:14;99875.75;;;7.40;50.33
46714;BME280;32445;51.376;10.874;2024-03-22T02:27:14;99883.44;;;7.46;50.46
46714;BME280;32445;51.376;10.874;2024-03-22T02:32:14;99877.34;;;7.59;50.21
46714;BME280;32445;51.376;10.874;2024-03-22T02:37:15;99866.09;;;7.67;50.02
46714;BME280;32445;51.376;10.874;2024-03-22T02:42:15;99861.72;;;7.72;49.93
46714;BME280;32445;51.376;10.874;2024-03-22T02:47:15;99849.66;;;7.74;49.95
46714;BME280;32445;51.376;10.874;2024-03-22T02:52:16;99842.75;;;7.76;49.80
46714;BME280;32445;51.376;10.874;2024-03-22T02:57:16;99824.63;;;7.77;49.90
46714;BME280;32445;51.376;10.874;2024-03-22T03:02:16;99811.72;;;7.76;49.82
46714;BME280;32445;51.376;10.874;2024-03-22T03:07:17;99802.38;;;7.64;50.18
46714;BME280;32445;51.376;10.874;2024-03-22T03:12:17;99790.25;;;7.68;50.23
46714;BME280;32445;51.376;10.874;2024-03-22T03:17:17;99789.34;;;7.73;50.02
46714;BME280;32445;51.376;10.874;2024-03-22T03:22:18;99783.31;;;7.76;50.13
46714;BME280;32445;51.376;10.874;2024-03-22T03:27:18;99789.31;;;7.76;50.15
46714;BME280;32445;51.376;10.874;2024-03-22T03:32:18;99794.50;;;7.73;50.19
46714;BME280;32445;51.376;10.874;2024-03-22T03:37:19;99793.78;;;7.60;50.67
46714;BME280;32445;51.376;10.874;2024-03-22T03:42:19;99784.31;;;7.62;50.49
46714;BME280;32445;51.376;10.874;2024-03-22T03:47:19;99772.19;;;7.66;50.40
46714;BME280;32445;51.376;10.874;2024-03-22T03:52:20;99762.75;;;7.62;50.79
46714;BME280;32445;51.376;10.874;2024-03-22T03:57:20;99744.66;;;7.63;50.67
46714;BME280;32445;51.376;10.874;2024-03-22T04:02:20;99737.84;;;7.58;50.90
46714;BME280;32445;51.376;10.874;2024-03-22T04:07:21;99736.09;;;7.60;51.09
46714;BME280;32445;51.376;10.874;2024-03-22T04:12:21;99720.63;;;7.57;51.28
46714;BME280;32445;51.376;10.874;2024-03-22T04:17:22;99719.72;;;7.62;51.13
46714;BME280;32445;51.376;10.874;2024-03-22T04:22:25;99720.47;;;7.69;51.26
46714;BME280;32445;51.376;10.874;2024-03-22T04:27:26;99718.81;;;7.67;51.33
46714;BME280;32445;51.376;10.874;2024-03-22T04:32:26;99715.38;;;7.65;51.85
46714;BME280;32445;51.376;10.874;2024-03-22T04:37:29;99706.84;;;7.55;52.48
46714;BME280;32445;51.376;10.874;2024-03-22T04:42:29;99701.72;;;7.53;52.82
46714;BME280;32445;51.376;10.874;2024-03-22T04:47:30;99695.53;;;7.68;52.90
46714;BME280;32445;51.376;10.874;2024-03-22T04:52:30;99697.16;;;7.77;52.00
46714;BME280;32445;51.376;10.874;2024-03-22T04:57:31;99699.75;;;7.75;52.42
46714;BME280;32445;51.376;10.874;2024-03-22T05:02:32;99692.84;;;7.77;52.23
46714;BME280;32445;51.376;10.874;2024-03-22T05:07:32;99690.13;;;7.88;52.05
46714;BME280;32445;51.376;10.874;2024-03-22T05:12:32;99693.47;;;7.98;52.40
46714;BME280;32445;51.376;10.874;2024-03-22T05:17:33;99686.53;;;8.02;51.83
46714;BME280;32445;51.376;10.874;2024-03-22T05:22:33;99684.59;;;8.16;51.62
46714;BME280;32445;51.376;10.874;2024-03-22T05:27:34;99690.63;;;8.18;51.51
46714;BME280;32445;51.376;10.874;2024-03-22T05:32:34;99683.88;;;8.06;51.96
46714;BME280;32445;51.376;10.874;2024-03-22T05:37:35;99674.41;;;8.05;52.29
46714;BME280;32445;51.376;10.874;2024-03-22T05:42:36;99682.97;;;8.09;52.20
46714;BME280;32445;51.376;10.874;2024-03-22T05:47:37;99682.16;;;8.07;52.56
46714;BME280;32445;51.376;10.874;2024-03-22T05:52:38;99675.13;;;8.18;52.31
46714;BME280;32445;51.376;10.874;2024-03-22T05:57:38;99657.66;;;8.34;51.88
46714;BME280;32445;51.376;10.874;2024-03-22T06:02:39;99651.47;;;8.46;51.28
46714;BME280;32445;51.376;10.874;2024-03-22T06:07:39;99648.78;;;8.51;51.61
46714;BME280;32445;51.376;10.874;2024-03-22T06:12:44;99636.72;;;8.49;51.54
46714;BME280;32445;51.376;10.874;2024-03-22T06:17:47;99621.13;;;8.56;51.79
46714;BME280;32445;51.376;10.874;2024-03-22T06:22:48;99622.81;;;8.58;51.82
46714;BME280;32445;51.376;10.874;2024-03-22T06:27:48;99633.13;;;8.61;52.20
46714;BME280;32445;51.376;10.874;2024-03-22T06:32:49;99623.59;;;8.62;52.49
46714;BME280;32445;51.376;10.874;2024-03-22T06:37:49;99607.16;;;8.66;52.51
46714;BME280;32445;51.376;10.874;2024-03-22T06:42:50;99608.81;;;8.70;52.59
46714;BME280;32445;51.376;10.874;2024-03-22T06:47:50;99612.97;;;8.79;52.46
46714;BME280;32445;51.376;10.874;2024-03-22T06:52:54;99605.06;;;8.87;53.20
46714;BME280;32445;51.376;10.874;2024-03-22T06:57:55;99599.03;;;8.88;53.97
46714;BME280;32445;51.376;10.874;2024-03-22T07:02:55;99596.38;;;8.91;54.48
46714;BME280;32445;51.376;10.874;2024-03-22T07:07:56;99593.69;;;8.95;53.90
46714;BME280;32445;51.376;10.874;2024-03-22T07:12:57;99608.31;;;8.98;54.06
46714;BME280;32445;51.376;10.874;2024-03-22T07:17:58;99604.75;;;9.05;54.26
46714;BME280;32445;51.376;10.874;2024-03-22T07:22:58;99603.91;;;9.05;54.65
46714;BME280;32445;51.376;10.874;2024-03-22T07:27:59;99590.78;;;9.14;53.96
46714;BME280;32445;51.376;10.874;2024-03-22T07:32:59;99597.50;;;9.24;54.12
46714;BME280;32445;51.376;10.874;2024-03-22T07:38:00;99589.50;;;9.35;54.24
46714;BME280;32445;51.376;10.874;2024-03-22T07:43:02;99595.22;;;9.51;53.33
46714;BME280;32445;51.376;10.874;2024-03-22T07:48:06;99592.47;;;9.60;53.70
46714;BME280;32445;51.376;10.874;2024-03-22T07:53:06;99587.16;;;9.66;53.64
46714;BME280;32445;51.376;10.874;2024-03-22T07:58:06;99590.44;;;9.75;54.05
46714;BME280;32445;51.376;10.874;2024-03-22T08:03:15;99571.09;;;9.90;53.67
46714;BME280;32445;51.376;10.874;2024-03-22T08:08:15;99567.44;;;9.98;54.33
46714;BME280;32445;51.376;10.874;2024-03-22T08:13:16;99560.44;;;10.02;54.39
46714;BME280;32445;51.376;10.874;2024-03-22T08:18:16;99562.06;;;10.08;54.18
46714;BME280;32445;51.376;10.874;2024-03-22T08:23:17;99559.81;;;10.28;53.36
46714;BME280;32445;51.376;10.874;2024-03-22T08:28:20;99558.69;;;10.42;53.22
46714;BME280;32445;51.376;10.874;2024-03-22T08:33:20;99545.44;;;10.52;53.36
46714;BME280;32445;51.376;10.874;2024-03-22T08:38:21;99544.97;;;10.71;52.91
46714;BME280;32445;51.376;10.874;2024-03-22T08:43:21;99547.22;;;10.85;53.17
46714;BME280;32445;51.376;10.874;2024-03-22T08:48:25;99532.34;;;10.90;53.19
46714;BME280;32445;51.376;10.874;2024-03-22T08:53:26;99529.59;;;10.96;53.70
46714;BME280;32445;51.376;10.874;2024-03-22T08:58:26;99521.56;;;11.04;53.53
46714;BME280;32445;51.376;10.874;2024-03-22T09:03:27;99522.13;;;11.15;54.03
46714;BME280;32445;51.376;10.874;2024-03-22T09:08:27;99509.88;;;11.20;54.28
46714;BME280;32445;51.376;10.874;2024-03-22T09:13:29;99497.41;;;11.32;53.74
46714;BME280;32445;51.376;10.874;2024-03-22T09:18:29;99494.59;;;11.39;54.71
46714;BME280;32445;51.376;10.874;2024-03-22T09:23:31;99492.00;;;11.39;55.08
46714;BME280;32445;51.376;10.874;2024-03-22T09:28:31;99472.84;;;11.42;55.41
46714;BME280;32445;51.376;10.874;2024-03-22T09:33:35;99471.78;;;11.49;55.45
46714;BME280;32445;51.376;10.874;2024-03-22T09:38:35;99471.47;;;11.58;55.15
46714;BME280;32445;51.376;10.874;2024-03-22T09:43:37;99469.31;;;11.73;55.03
46714;BME280;32445;51.376;10.874;2024-03-22T09:48:38;99465.81;;;12.02;54.01
46714;BME280;32445;51.376;10.874;2024-03-22T09:53:45;99450.66;;;12.15;54.10
46714;BME280;32445;51.376;10.874;2024-03-22T09:58:49;99444.81;;;12.34;54.43
46714;BME280;32445;51.376;10.874;2024-03-22T10:03:51;99447.09;;;12.43;53.71
46714;BME280;32445;51.376;10.874;2024-03-22T10:08:52;99440.66;;;12.53;53.95
46714;BME280;32445;51.376;10.874;2024-03-22T10:13:53;99438.94;;;12.77;53.27
46714;BME280;32445;51.376;10.874;2024-03-22T10:18:55;99428.53;;;13.01;53.11
46714;BME280;32445;51.376;10.874;2024-03-22T10:23:58;99423.97;;;13.30;52.62
46714;BME280;32445;51.376;10.874;2024-03-22T10:28:59;99416.75;;;13.38;52.49
46714;BME280;32445;51.376;10.874;2024-03-22T10:34:02;99408.28;;;13.54;52.46
46714;BME280;32445;51.376;10.874;2024-03-22T10:39:04;99398.28;;;13.65;52.80
46714;BME280;32445;51.376;10.874;2024-03-22T10:44:05;99389.34;;;13.71;52.88
46714;BME280;32445;51.376;10.874;2024-03-22T10:49:09;99389.34;;;13.93;52.92
46714;BME280;32445;51.376;10.874;2024-03-22T10:54:13;99387.69;;;14.11;52.64
46714;BME280;32445;51.376;10.874;2024-03-22T10:59:19;99376.81;;;14.22;52.66
46714;BME280;32445;51.376;10.874;2024-03-22T11:04:20;99367.50;;;14.35;52.64
46714;BME280;32445;51.376;10.874;2024-03-22T11:09:25;99359.53;;;14.38;52.62
46714;BME280;32445;51.376;10.874;2024-03-22T11:14:26;99348.69;;;14.47;52.96
46714;BME280;32445;51.376;10.874;2024-03-22T11:19:26;99332.84;;;14.71;52.71
46714;BME280;32445;51.376;10.874;2024-03-22T11:24:37;99329.31;;;14.91;52.38
46714;BME280;32445;51.376;10.874;2024-03-22T11:29:38;99316.44;;;15.05;52.36
46714;BME280;32445;51.376;10.874;2024-03-22T11:34:42;99314.34;;;15.31;52.24
46714;BME280;32445;51.376;10.874;2024-03-22T11:39:42;99298.38;;;15.55;51.99
46714;BME280;32445;51.376;10.874;2024-03-22T11:44:43;99294.97;;;15.70;51.86
46714;BME280;32445;51.376;10.874;2024-03-22T11:49:44;99299.97;;;15.75;51.81
46714;BME280;32445;51.376;10.874;2024-03-22T11:54:50;99290.50;;;15.72;51.61
46714;BME280;32445;51.376;10.874;2024-03-22T11:59:59;99281.28;;;15.65;51.90
46714;BME280;32445;51.376;10.874;2024-03-22T12:05:00;99263.50;;;15.72;51.94
46714;BME280;32445;51.376;10.874;2024-03-22T12:10:01;99258.19;;;15.91;52.22
46714;BME280;32445;51.376;10.874;2024-03-22T12:15:01;99246.75;;;16.09;51.96
46714;BME280;32445;51.376;10.874;2024-03-22T12:20:02;99249.38;;;16.25;51.90
46714;BME280;32445;51.376;10.874;2024-03-22T12:25:09;99229.97;;;16.30;51.68
46714;BME280;32445;51.376;10.874;2024-03-22T12:30:10;99228.53;;;16.40;51.81
46714;BME280;32445;51.376;10.874;2024-03-22T12:35:11;99222.94;;;16.46;51.09
46714;BME280;32445;51.376;10.874;2024-03-22T12:40:11;99205.38;;;16.48;51.40
46714;BME280;32445;51.376;10.874;2024-03-22T12:45:14;99210.63;;;16.48;51.28
46714;BME280;32445;51.376;10.874;2024-03-22T12:50:14;99196.34;;;16.54;51.28
46714;BME280;32445;51.376;10.874;2024-03-22T12:55:15;99204.94;;;16.56;51.69
46714;BME280;32445;51.376;10.874;2024-03-22T13:00:15;99190.94;;;16.41;50.37
46714;BME280;32445;51.376;10.874;2024-03-22T13:05:18;99180.72;;;16.36;50.90
46714;BME280;32445;51.376;10.874;2024-03-22T13:10:19;99189.84;;;16.45;50.85
46714;BME280;32445;51.376;10.874;2024-03-22T13:15:19;99186.28;;;16.46;50.37
46714;BME280;32445;51.376;10.874;2024-03-22T13:20:20;99171.34;;;16.32;50.98
46714;BME280;32445;51.376;10.874;2024-03-22T13:25:20;99166.50;;;16.24;50.26
46714;BME280;32445;51.376;10.874;2024-03-22T13:30:21;99155.03;;;16.27;51.17
46714;BME280;32445;51.376;10.874;2024-03-22T13:35:27;99152.31;;;16.44;51.00
46714;BME280;32445;51.376;10.874;2024-03-22T13:40:27;99144.81;;;16.38;50.52
46714;BME280;32445;51.376;10.874;2024-03-22T13:45:28;99133.31;;;16.41;51.33
46714;BME280;32445;51.376;10.874;2024-03-22T13:50:28;99128.34;;;16.36;51.42
46714;BME280;32445;51.376;10.874;2024-03-22T13:55:29;99132.56;;;16.23;50.89
46714;BME280;32445;51.376;10.874;2024-03-22T14:00:29;99129.66;;;16.27;50.90
46714;BME280;32445;51.376;10.874;2024-03-22T14:05:30;99110.84;;;16.21;51.28
46714;BME280;32445;51.376;10.874;2024-03-22T14:10:31;99119.28;;;16.26;51.04
46714;BME280;32445;51.376;10.874;2024-03-22T14:15:31;99115.84;;;16.25;51.37
46714;BME280;32445;51.376;10.874;2024-03-22T14:20:32;99107.31;;;16.22;51.31
46714;BME280;32445;51.376;10.874;2024-03-22T14:25:33;99092.31;;;16.40;51.02
46714;BME280;32445;51.376;10.874;2024-03-22T14:30:33;99088.50;;;16.46;50.92
46714;BME280;32445;51.376;10.874;2024-03-22T14:35:34;99087.59;;;16.47;51.02
46714;BME280;32445;51.376;10.874;2024-03-22T14:40:34;99080.16;;;16.39;50.96
46714;BME280;32445;51.376;10.874;2024-03-22T14:45:37;99071.19;;;16.43;51.19
46714;BME280;32445;51.376;10.874;2024-03-22T14:50:39;99067.47;;;16.47;50.83
46714;BME280;32445;51.376;10.874;2024-03-22T14:55:39;99043.38;;;16.40;51.11
46714;BME280;32445;51.376;10.874;2024-03-22T15:00:40;99047.00;;;16.54;50.97
46714;BME280;32445;51.376;10.874;2024-03-22T15:05:40;99046.50;;;16.47;50.82
46714;BME280;32445;51.376;10.874;2024-03-22T15:10:41;99064.19;;;16.27;50.42
46714;BME280;32445;51.376;10.874;2024-03-22T15:15:41;99052.84;;;16.13;50.46
46714;BME280;32445;51.376;10.874;2024-03-22T15:20:42;99052.59;;;16.01;50.63
46714;BME280;32445;51.376;10.874;2024-03-22T15:25:43;99050.66;;;15.89;51.21
46714;BME280;32445;51.376;10.874;2024-03-22T15:30:43;99035.72;;;15.91;51.28
46714;BME280;32445;51.376;10.874;2024-03-22T15:35:44;99042.72;;;15.90;51.47
46714;BME280;32445;51.376;10.874;2024-03-22T15:40:50;99032.75;;;15.81;51.70
46714;BME280;32445;51.376;10.874;2024-03-22T15:45:51;99016.56;;;15.90;51.52
46714;BME280;32445;51.376;10.874;2024-03-22T15:50:52;99024.88;;;15.97;51.49
46714;BME280;32445;51.376;10.874;2024-03-22T15:55:54;99021.34;;;15.98;51.20
46714;BME280;32445;51.376;10.874;2024-03-22T16:00:54;99021.34;;;15.98;50.97
46714;BME280;32445;51.376;10.874;2024-03-22T16:11:51;98988.16;;;15.99;51.04
46714;BME280;32445;51.376;10.874;2024-03-22T16:16:52;98974.13;;;16.00;50.85
46714;BME280;32445;51.376;10.874;2024-03-22T16:21:52;98983.78;;;15.99;50.75
46714;BME280;32445;51.376;10.874;2024-03-22T16:26:53;98994.25;;;15.99;50.54
46714;BME280;32445;51.376;10.874;2024-03-22T16:31:53;98972.44;;;15.99;50.63
46714;BME280;32445;51.376;10.874;2024-03-22T16:36:54;98958.63;;;15.97;50.53
46714;BME280;32445;51.376;10.874;2024-03-22T16:41:54;98958.78;;;15.94;50.62
46714;BME280;32445;51.376;10.874;2024-03-22T16:46:55;98977.28;;;15.90;50.71
46714;BME280;32445;51.376;10.874;2024-03-22T16:51:56;98978.22;;;15.89;50.59
46714;BME280;32445;51.376;10.874;2024-03-22T16:56:56;98956.50;;;15.87;50.52
46714;BME280;32445;51.376;10.874;2024-03-22T17:01:57;98961.00;;;15.85;50.37
46714;BME280;32445;51.376;10.874;2024-03-22T17:06:57;98953.31;;;15.82;50.26
46714;BME280;32445;51.376;10.874;2024-03-22T17:11:57;98946.47;;;15.80;50.45
46714;BME280;32445;51.376;10.874;2024-03-22T17:16:58;98946.81;;;15.73;50.41
46714;BME280;32445;51.376;10.874;2024-03-22T17:21:59;98941.84;;;15.69;50.48
46714;BME280;32445;51.376;10.874;2024-03-22T17:27:01;98929.00;;;15.64;50.36
46714;BME280;32445;51.376;10.874;2024-03-22T17:32:01;98922.25;;;15.60;50.71
46714;BME280;32445;51.376;10.874;2024-03-22T17:37:02;98915.84;;;15.50;50.57
46714;BME280;32445;51.376;10.874;2024-03-22T17:42:03;98916.94;;;15.46;50.78
46714;BME280;32445;51.376;10.874;2024-03-22T17:47:04;98931.13;;;15.42;50.64
46714;BME280;32445;51.376;10.874;2024-03-22T17:52:04;98920.25;;;15.33;50.68
46714;BME280;32445;51.376;10.874;2024-03-22T17:57:13;98926.59;;;15.29;50.81
46714;BME280;32445;51.376;10.874;2024-03-22T18:02:16;98921.69;;;15.23;50.77
46714;BME280;32445;51.376;10.874;2024-03-22T18:07:17;98913.25;;;15.18;50.86
46714;BME280;32445;51.376;10.874;2024-03-22T18:12:21;98922.19;;;15.14;50.75
46714;BME280;32445;51.376;10.874;2024-03-22T18:17:24;98924.28;;;15.07;50.75
46714;BME280;32445;51.376;10.874;2024-03-22T18:22:27;98910.72;;;15.00;50.79
46714;BME280;32445;51.376;10.874;2024-03-22T18:27:27;98904.13;;;14.93;50.79
46714;BME280;32445;51.376;10.874;2024-03-22T18:32:28;98904.31;;;14.90;50.64
46714;BME280;32445;51.376;10.874;2024-03-22T18:37:28;98899.72;;;14.78;51.01
46714;BME280;32445;51.376;10.874;2024-03-22T18:42:29;98894.38;;;14.63;51.26
46714;BME280;32445;51.376;10.874;2024-03-22T18:47:29;98893.66;;;14.60;51.20
46714;BME280;32445;51.376;10.874;2024-03-22T18:52:30;98888.34;;;14.61;51.11
46714;BME280;32445;51.376;10.874;2024-03-22T18:57:31;98882.38;;;14.59;51.23
46714;BME280;32445;51.376;10.874;2024-03-22T19:02:31;98882.53;;;14.56;50.87
46714;BME280;32445;51.376;10.874;2024-03-22T19:07:35;98874.09;;;14.51;51.18
46714;BME280;32445;51.376;10.874;2024-03-22T19:12:35;98892.66;;;14.29;51.61
46714;BME280;32445;51.376;10.874;2024-03-22T19:17:35;98892.44;;;13.98;52.32
46714;BME280;32445;51.376;10.874;2024-03-22T19:22:36;98889.66;;;13.84;52.39
46714;BME280;32445;51.376;10.874;2024-03-22T19:27:36;98889.47;;;13.70;52.73
46714;BME280;32445;51.376;10.874;2024-03-22T19:32:37;98892.03;;;13.71;52.61
46714;BME280;32445;51.376;10.874;2024-03-22T19:37:37;98885.56;;;13.61;52.70
46714;BME280;32445;51.376;10.874;2024-03-22T19:42:38;98884.25;;;13.70;52.62
46714;BME280;32445;51.376;10.874;2024-03-22T19:47:39;98872.69;;;13.75;52.28
46714;BME280;32445;51.376;10.874;2024-03-22T19:52:39;98874.06;;;13.65;52.70
46714;BME280;32445;51.376;10.874;2024-03-22T19:57:40;98872.06;;;13.53;52.76
46714;BME280;32445;51.376;10.874;2024-03-22T20:02:40;98882.56;;;13.51;52.82
46714;BME280;32445;51.376;10.874;2024-03-22T20:07:41;98879.81;;;13.54;52.69
46714;BME280;32445;51.376;10.874;2024-03-22T20:12:41;98893.88;;;13.31;53.45
46714;BME280;32445;51.376;10.874;2024-03-22T20:17:42;98894.91;;;13.28;53.33
46714;BME280;32445;51.376;10.874;2024-03-22T20:22:42;98899.75;;;13.17;53.98
46714;BME280;32445;51.376;10.874;2024-03-22T20:27:42;98902.03;;;13.06;54.29
46714;BME280;32445;51.376;10.874;2024-03-22T20:32:45;98887.38;;;13.03;54.17
46714;BME280;32445;51.376;10.874;2024-03-22T20:37:46;98893.41;;;13.04;54.17
